Terminal Aerodrome Forecast
Issued by NWS Wilmington, OH

Current Version | Previous Version | Text Only | Print | Product List | Glossary Off
Versions: 1 2 3 4 5 6 7 8 9 10 11 12 13 14 15 16 17 18 19 20 21 22 23 24 25 26 27

837
FTUS41 KILN 040542
TAFCVG
TAF
KCVG 040542Z 0406/0512 VRB03KT P6SM SCT028 OVC150
     FM041200 09005KT P6SM OVC090
     FM041600 11008KT P6SM OVC050
     FM042000 14007KT 4SM -RA BR OVC025
     FM042200 14007KT 4SM -RA BR OVC015
     FM050000 17005KT 4SM -RA BR OVC006
     FM050300 25008KT P6SM OVC006=

USA.gov is the U.S. government's official web portal to all federal, state and local government web resources and services.